Terminal Aerodrome Forecast
Issued by NWS Pocatello, ID

Home | Current Version | Previous Version | Text Only | Print | Product List | Glossary On
Versions: 1 2 3 4 5 6 7 8 9 10 11 12 13 14 15 16 17 18 19 20 21 22 23 24 25 26 27 28 29 30 31 32 33 34 35 36 37 38 39 40 41 42 43 44 45 46 47 48 49 50
546
FTUS45 KPIH 161120
TAFBYI
TAF
KBYI 161120Z 1612/1712 21006KT P6SM VCFG FEW015 FEW060
      TEMPO 1613/1616 BKN015 BKN060
     FM162100 27006KT P6SM FEW015
     FM170300 18006KT P6SM SKC=

USA.gov is the U.S. government's official web portal to all federal, state and local government web resources and services.